Terminal Aerodrome Forecast
Issued by NWS

Home | Current Version | Previous Version | Text Only | Print | Product List | Glossary On
Versions: 1 2 3 4 5 6 7 8 9 10 11 12 13 14 15 16 17 18 19 20 21 22 23 24 25 26 27 28 29
000
FTUS44 KOUN 272336
TAFPNC
TAF
KPNC 272336Z 2800/2824 03010KT P6SM OVC080
      TEMPO 2800/2804 3SM -RA BR BKN020
     FM281200 01008KT 6SM BR OVC050
     FM281700 36012G18KT P6SM BKN250=

USA.gov is the U.S. government's official web portal to all federal, state and local government web resources and services.